Climax, Colorado
Current Conditions -  °F | °C
As of 5:15 AM on Thursday 29 Jan 2015 (Local Time) from KCCU Reporting Station
Overcast Overcast  
Wind Chill: 15°   Ceiling: 1800
Heat Index: 23°   Visibility: 10mi
Dew Point: 18°   Wind: 7mph
Humidity: 80%   Direction: 260°W
Pressure: 30.42"   Gusts: NA
Location:  39.38°N, 106.18°W
Report Text: KCCU 291215Z AUTO 26006KT 10SM OVC018 M05/M08 A3042 RMK AO2
Loading
Personal Weather Stations






























Interactive Weather Map New forecast layout! Learn more

10-Day Weather Forecast

Advertisements
Track Severe Weather on mobile